Irvington, Iowa
Current Conditions -  °F | °C
As of 10:35 AM on Sunday 21 Dec 2014 (Local Time) from KAXA Reporting Station
Moderate Fog Moderate Fog  
Wind Chill: 24°   Ceiling: 200
Heat Index: 36°   Visibility: 0.5mi
Dew Point: 36°   Wind: 22mph
Humidity: 100%   Direction: 180°S
Pressure: 29.84"   Gusts: NA
Location:  42.991°N, 94.0912°W
Report Text: KAXA 211635Z AUTO 18019KT 1/2SM FG OVC002 02/02 A2984 RMK AO2
Loading
Personal Weather Stations






























Interactive Weather Map New forecast layout! Learn more

10-Day Weather Forecast

Advertisements
Track Severe Weather on mobile